Time;durP1;ratioP1;P1;durP2;ratioP2;P2;SDS_P1;SDS_P2;PMS_P1;PMS_P2;Temp;Humidity;BMP_temperature;BMP_pressure;BME280_temperature;BME280_humidity;BME280_pressure;Samples;Min_cycle;Max_cycle;Signal;HPM_P1;HPM_P2
2021/12/26 00:00:58;;;;;;;26.08;9.13;;;;;;;;;;4992120;28;20045;-66
2021/12/26 00:03:24;;;;;;;25.50;9.25;;;;;;;;;;4982493;28;20038;-66
2021/12/26 00:05:50;;;;;;;22.98;9.43;;;;;;;;;;4991634;28;20493;-66
2021/12/26 00:08:16;;;;;;;25.10;9.48;;;;;;;;;;4980142;28;20494;-66
2021/12/26 00:10:42;;;;;;;29.50;10.63;;;;;;;;;;4983721;28;20034;-66
2021/12/26 00:13:08;;;;;;;23.88;9.43;;;;;;;;;;4988175;28;20064;-66
2021/12/26 00:15:34;;;;;;;26.25;9.45;;;;;;;;;;4985985;28;20095;-66
2021/12/26 00:18:00;;;;;;;22.77;9.50;;;;;;;;;;5001451;28;20050;-66
2021/12/26 00:20:27;;;;;;;22.90;9.35;;;;;;;;;;4983576;28;20061;-66
2021/12/26 00:22:53;;;;;;;24.23;9.57;;;;;;;;;;4983318;28;20129;-66
2021/12/26 00:25:19;;;;;;;19.70;7.28;;;;;;;;;;4975565;28;20037;-66
2021/12/26 00:27:45;;;;;;;16.48;7.15;;;;;;;;;;4987377;28;20133;-66
2021/12/26 00:30:11;;;;;;;20.55;8.82;;;;;;;;;;4989585;28;20111;-66
2021/12/26 00:32:37;;;;;;;20.08;7.78;;;;;;;;;;4984772;28;20838;-66
2021/12/26 00:35:04;;;;;;;14.90;6.25;;;;;;;;;;4984500;28;20089;-66
2021/12/26 00:37:30;;;;;;;15.52;6.78;;;;;;;;;;4973157;28;20414;-66
2021/12/26 00:39:57;;;;;;;16.02;6.70;;;;;;;;;;4989773;28;20030;-66
2021/12/26 00:42:22;;;;;;;16.08;6.43;;;-10.10;99.90;;;;;;4986181;28;20549;-66
2021/12/26 00:44:48;;;;;;;13.10;5.88;;;;;;;;;;4975128;28;20030;-66
2021/12/26 00:47:14;;;;;;;16.63;6.35;;;;;;;;;;4987145;28;20080;-66
2021/12/26 00:49:40;;;;;;;14.48;7.45;;;;;;;;;;4984102;28;20080;-66
2021/12/26 00:52:06;;;;;;;17.65;7.82;;;;;;;;;;4987362;28;20049;-66
2021/12/26 00:54:33;;;;;;;20.02;7.43;;;;;;;;;;4985655;28;20061;-66
2021/12/26 00:56:59;;;;;;;22.70;9.18;;;;;;;;;;4983997;28;20534;-66
2021/12/26 00:59:25;;;;;;;26.70;8.55;;;;;;;;;;4993475;28;20802;-66
2021/12/26 01:01:51;;;;;;;18.17;7.25;;;;;;;;;;4975502;28;20393;-66
2021/12/26 01:04:17;;;;;;;19.42;8.13;;;;;;;;;;4987564;28;20029;-66
2021/12/26 01:06:43;;;;;;;22.60;8.30;;;-9.90;99.90;;;;;;4983455;28;20050;-66
2021/12/26 01:09:12;;;;;;;16.70;7.32;;;;;;;;;;4983141;28;20121;-66
2021/12/26 01:11:42;;;;;;;19.75;8.45;;;;;;;;;;4988610;28;20038;-66
2021/12/26 01:14:12;;;;;;;;;;;-10.00;99.90;;;;;;4984415;28;20589;-66
2021/12/26 01:16:49;;;;;;;17.75;7.80;;;;;;;;;;5006351;28;19914;-66
2021/12/26 01:19:19;;;;;;;19.35;8.20;;;;;;;;;;4986506;28;20038;-66
2021/12/26 01:21:45;;;;;;;19.77;8.23;;;-10.10;99.90;;;;;;4991156;28;20035;-65
2021/12/26 01:24:15;;;;;;;20.17;8.30;;;;;;;;;;4991814;28;20685;-66
2021/12/26 01:26:42;;;;;;;22.27;8.77;;;;;;;;;;4981636;28;20441;-66
2021/12/26 01:29:09;;;;;;;23.10;8.10;;;-10.10;99.90;;;;;;4983172;28;20455;-66
2021/12/26 01:31:39;;;;;;;19.25;8.38;;;;;;;;;;4981839;28;20034;-66
2021/12/26 01:34:25;;;;;;;18.48;7.93;;;;;;;;;;4986223;28;20165;-66
2021/12/26 01:37:11;;;;;;;19.90;8.00;;;;;;;;;;4989640;28;20125;-66
2021/12/26 01:39:46;;;;;;;17.25;7.00;;;;;;;;;;4989045;28;20030;-65
2021/12/26 01:42:19;;;;;;;22.08;6.70;;;;;;;;;;4990184;28;20037;-66
2021/12/26 01:44:59;;;;;;;17.27;6.60;;;;;;;;;;4979861;28;20030;-65
2021/12/26 01:47:30;;;;;;;18.17;7.25;;;;;;;;;;4981687;28;20061;-66
2021/12/26 01:49:56;;;;;;;20.80;7.68;;;;;;;;;;5001754;28;20041;-66
2021/12/26 01:52:23;;;;;;;18.65;8.15;;;;;;;;;;4986688;28;20030;-66
2021/12/26 01:55:00;;;;;;;17.27;7.10;;;;;;;;;;4984293;28;20037;-66
2021/12/26 01:57:26;;;;;;;14.55;6.25;;;;;;;;;;4983864;28;20041;-66
2021/12/26 01:59:52;;;;;;;19.38;6.90;;;-9.90;99.90;;;;;;4985023;28;20030;-66
2021/12/26 02:02:23;;;;;;;16.60;6.55;;;;;;;;;;4988163;28;20243;-66
2021/12/26 02:04:50;;;;;;;14.25;6.10;;;;;;;;;;4984678;28;20041;-66
2021/12/26 02:07:17;;;;;;;13.32;6.05;;;;;;;;;;4981442;28;20495;-66
2021/12/26 02:09:46;;;;;;;18.33;6.25;;;;;;;;;;4982654;28;20274;-66
2021/12/26 02:12:17;;;;;;;13.75;6.07;;;;;;;;;;4983428;28;20031;-66
2021/12/26 02:14:43;;;;;;;13.68;5.60;;;;;;;;;;4998270;28;20053;-66
2021/12/26 02:17:47;;;;;;;11.77;4.80;;;;;;;;;;4980875;28;20042;-66
2021/12/26 02:20:14;;;;;;;12.18;5.30;;;;;;;;;;4988769;28;20581;-66
2021/12/26 02:22:44;;;;;;;16.45;6.05;;;;;;;;;;4974256;28;20117;-66
2021/12/26 02:27:55;;;;;;;;;;;-10.40;99.90;;;;;;4982061;28;20030;-66
2021/12/26 02:30:22;;;;;;;12.23;5.38;;;;;;;;;;4984911;28;20581;-66
2021/12/26 02:32:51;;;;;;;13.05;5.43;;;;;;;;;;4985164;28;20088;-66
2021/12/26 02:35:17;;;;;;;13.95;5.43;;;;;;;;;;4985117;28;20026;-66
2021/12/26 02:37:43;;;;;;;13.77;6.07;;;;;;;;;;4989419;28;20065;-66
2021/12/26 02:40:10;;;;;;;12.10;5.40;;;;;;;;;;4970269;28;20113;-66
2021/12/26 02:42:36;;;;;;;11.82;6.38;;;;;;;;;;4990827;28;20077;-66
2021/12/26 02:45:02;;;;;;;13.02;5.55;;;;;;;;;;4982177;28;20093;-66
2021/12/26 02:47:28;;;;;;;18.27;6.65;;;;;;;;;;4982385;28;20029;-66
2021/12/26 02:49:54;;;;;;;17.60;6.50;;;;;;;;;;4978979;28;20030;-66
2021/12/26 02:52:20;;;;;;;14.98;6.50;;;;;;;;;;4983442;28;20030;-66
2021/12/26 02:54:46;;;;;;;17.50;7.03;;;;;;;;;;4986750;28;20069;-66
2021/12/26 02:57:12;;;;;;;15.75;6.45;;;;;;;;;;4989566;28;20396;-66
2021/12/26 02:59:38;;;;;;;15.10;6.88;;;;;;;;;;4986760;28;20087;-66
2021/12/26 03:02:04;;;;;;;14.07;6.57;;;;;;;;;;4984434;28;20049;-66
2021/12/26 03:04:30;;;;;;;22.70;6.85;;;;;;;;;;4983432;28;20037;-66
2021/12/26 03:07:03;;;;;;;13.88;6.72;;;;;;;;;;4982541;28;20026;-66
2021/12/26 03:09:31;;;;;;;14.82;6.80;;;;;;;;;;4995151;28;20041;-66
2021/12/26 03:11:57;;;;;;;15.70;6.10;;;-10.80;99.90;;;;;;4984994;28;20022;-66
2021/12/26 03:14:23;;;;;;;17.45;6.07;;;;;;;;;;4986399;28;20030;-66
2021/12/26 03:16:49;;;;;;;14.93;6.32;;;;;;;;;;4973527;28;20061;-66
2021/12/26 03:19:15;;;;;;;16.38;6.78;;;;;;;;;;4988004;28;20034;-66
2021/12/26 03:21:42;;;;;;;17.85;6.50;;;;;;;;;;4991284;28;20030;-66
2021/12/26 03:24:08;;;;;;;14.73;6.72;;;;;;;;;;4982425;28;20026;-66
2021/12/26 03:26:34;;;;;;;16.45;6.30;;;;;;;;;;4984299;28;20025;-66
2021/12/26 03:29:00;;;;;;;18.02;6.53;;;;;;;;;;4981480;28;20045;-66
2021/12/26 03:31:26;;;;;;;13.90;6.55;;;;;;;;;;4980274;28;20118;-66
2021/12/26 03:33:51;;;;;;;18.77;7.40;;;-10.40;99.90;;;;;;4984091;28;20116;-66
2021/12/26 03:36:17;;;;;;;12.18;6.05;;;;;;;;;;4985765;28;20490;-66
2021/12/26 03:38:43;;;;;;;15.55;6.85;;;;;;;;;;4988548;28;20548;-67
2021/12/26 03:41:26;;;;;;;13.70;5.63;;;;;;;;;;4984146;28;20022;-66
2021/12/26 03:43:56;;;;;;;21.50;7.03;;;;;;;;;;4981813;28;20144;-66
2021/12/26 03:46:22;;;;;;;16.60;6.95;;;;;;;;;;4981274;28;20811;-66
2021/12/26 03:48:48;;;;;;;14.27;6.30;;;;;;;;;;4983169;28;20034;-66
2021/12/26 03:51:15;;;;;;;14.82;6.03;;;;;;;;;;4984102;28;20034;-66
2021/12/26 03:53:41;;;;;;;18.90;7.30;;;;;;;;;;4985346;28;20029;-66
2021/12/26 03:56:08;;;;;;;18.48;6.55;;;;;;;;;;4984865;28;20104;-66
2021/12/26 03:58:38;;;;;;;14.93;6.15;;;;;;;;;;4982440;28;20115;-66
2021/12/26 04:01:04;;;;;;;18.20;7.40;;;;;;;;;;4989832;28;20032;-66
2021/12/26 04:03:31;;;;;;;21.52;7.25;;;;;;;;;;4985609;28;20034;-66
2021/12/26 04:05:59;;;;;;;26.63;8.55;;;;;;;;;;4985151;28;20026;-66
2021/12/26 04:08:27;;;;;;;26.13;8.73;;;-11.00;99.90;;;;;;4982131;28;20045;-66
2021/12/26 04:10:53;;;;;;;30.48;10.23;;;;;;;;;;4988484;28;20026;-66
2021/12/26 04:13:19;;;;;;;32.03;10.75;;;-11.10;99.90;;;;;;4983753;28;20050;-66
2021/12/26 04:15:46;;;;;;;33.50;11.15;;;;;;;;;;4994479;28;20025;-66
2021/12/26 04:18:13;;;;;;;24.35;8.60;;;;;;;;;;4985348;28;20061;-66
2021/12/26 04:20:40;;;;;;;41.90;12.73;;;;;;;;;;4993926;28;20030;-66
2021/12/26 04:23:06;;;;;;;45.78;11.75;;;;;;;;;;4987236;28;20037;-66
2021/12/26 04:25:32;;;;;;;55.17;13.38;;;;;;;;;;4993435;28;20057;-66
2021/12/26 04:27:59;;;;;;;34.22;10.80;;;;;;;;;;4986470;28;20056;-66
2021/12/26 04:30:25;;;;;;;30.70;8.95;;;;;;;;;;4989748;28;20798;-66
2021/12/26 04:32:51;;;;;;;22.17;7.93;;;;;;;;;;4990075;28;20042;-66
2021/12/26 04:35:18;;;;;;;32.58;10.25;;;;;;;;;;4990188;28;20028;-66
2021/12/26 04:37:44;;;;;;;24.08;8.70;;;;;;;;;;4994695;28;20037;-66
2021/12/26 04:40:13;;;;;;;21.48;9.07;;;-10.90;99.90;;;;;;4983419;28;20022;-66
2021/12/26 04:43:02;;;;;;;30.67;9.57;;;;;;;;;;4972561;28;20039;-66
2021/12/26 04:45:37;;;;;;;30.00;10.52;;;;;;;;;;4984762;28;20451;-66
2021/12/26 04:48:09;;;;;;;34.70;11.43;;;-10.70;99.90;;;;;;4986348;28;20497;-66
2021/12/26 04:50:35;;;;;;;36.33;11.20;;;;;;;;;;4982186;28;20542;-66
2021/12/26 04:53:05;;;;;;;22.90;9.15;;;;;;;;;;4982022;28;20030;-66
2021/12/26 04:55:31;;;;;;;28.15;9.93;;;;;;;;;;4977936;28;20030;-66
2021/12/26 04:57:57;;;;;;;26.33;9.45;;;;;;;;;;4992126;28;20062;-66
2021/12/26 05:00:23;;;;;;;31.35;10.63;;;;;;;;;;4988488;28;20049;-66
2021/12/26 05:02:49;;;;;;;35.25;11.35;;;;;;;;;;4981784;28;20537;-66
2021/12/26 05:05:15;;;;;;;33.35;11.60;;;;;;;;;;4990126;28;20028;-66
2021/12/26 05:07:41;;;;;;;29.63;11.77;;;;;;;;;;4988982;28;20041;-66
2021/12/26 05:10:07;;;;;;;27.67;11.02;;;;;;;;;;4987404;28;20129;-66
2021/12/26 05:12:33;;;;;;;27.63;10.70;;;;;;;;;;4989815;28;20041;-66
2021/12/26 05:15:01;;;;;;;30.50;11.38;;;;;;;;;;4988884;28;20133;-66
2021/12/26 05:17:26;;;;;;;28.35;10.70;;;-11.10;99.90;;;;;;4988561;28;20038;-66
2021/12/26 05:19:53;;;;;;;30.15;10.23;;;;;;;;;;4987744;28;20198;-66
2021/12/26 05:22:20;;;;;;;32.20;11.15;;;-11.10;99.90;;;;;;4970390;28;20053;-66
2021/12/26 05:24:46;;;;;;;27.17;9.90;;;;;;;;;;4981988;28;20023;-66
2021/12/26 05:27:12;;;;;;;32.85;11.32;;;;;;;;;;4984354;28;20092;-66
2021/12/26 05:29:38;;;;;;;34.92;10.27;;;;;;;;;;4983794;28;20031;-66
2021/12/26 05:32:05;;;;;;;29.63;9.88;;;;;;;;;;4984776;28;20027;-66
2021/12/26 05:34:32;;;;;;;28.35;10.05;;;;;;;;;;4988386;28;20026;-66
2021/12/26 05:36:58;;;;;;;24.77;10.30;;;;;;;;;;4973524;28;20032;-66
2021/12/26 05:39:24;;;;;;;25.83;10.25;;;;;;;;;;4984720;28;20030;-66
2021/12/26 05:41:50;;;;;;;22.73;9.68;;;;;;;;;;4981034;28;20034;-66
2021/12/26 05:44:31;;;;;;;24.02;8.95;;;;;;;;;;4982848;28;20041;-66
2021/12/26 05:46:58;;;;;;;27.92;8.95;;;;;;;;;;4983276;28;20578;-67
2021/12/26 05:49:29;;;;;;;21.52;8.60;;;;;;;;;;4986295;28;20029;-67
2021/12/26 05:52:05;;;;;;;21.30;8.65;;;;;;;;;;4982258;28;20029;-67
2021/12/26 05:54:45;;;;;;;27.60;8.63;;;-11.30;99.90;;;;;;4988491;28;20080;-67
2021/12/26 05:57:11;;;;;;;24.52;8.60;;;;;;;;;;4986830;28;20533;-67
2021/12/26 05:59:37;;;;;;;30.13;9.90;;;;;;;;;;4985228;28;20034;-67
2021/12/26 06:02:03;;;;;;;26.95;8.57;;;;;;;;;;4980749;28;20553;-67
2021/12/26 06:04:31;;;;;;;23.52;10.15;;;;;;;;;;4982190;28;20330;-67
2021/12/26 06:06:58;;;;;;;24.45;8.85;;;;;;;;;;4965949;28;20029;-67
2021/12/26 06:09:25;;;;;;;24.75;8.00;;;;;;;;;;4983649;28;20031;-67
2021/12/26 06:11:51;;;;;;;29.83;9.27;;;;;;;;;;4986924;28;20170;-67
2021/12/26 06:14:17;;;;;;;26.60;8.95;;;;;;;;;;4986564;28;20487;-67
2021/12/26 06:16:43;;;;;;;28.85;9.85;;;;;;;;;;4987261;28;20045;-67
2021/12/26 06:19:23;;;;;;;25.33;9.85;;;;;;;;;;4976353;28;20046;-67
2021/12/26 06:22:09;;;;;;;26.65;9.52;;;;;;;;;;4978399;28;20026;-67
2021/12/26 06:24:58;;;;;;;28.67;9.18;;;;;;;;;;4987708;28;20569;-67
2021/12/26 06:27:28;;;;;;;22.33;9.18;;;;;;;;;;4982960;28;20030;-67
2021/12/26 06:30:13;;;;;;;22.55;9.25;;;;;;;;;;4985223;28;20550;-67
2021/12/26 06:33:11;;;;;;;23.08;7.85;;;;;;;;;;4987843;28;20042;-67
2021/12/26 06:36:09;;;;;;;18.08;7.07;;;;;;;;;;4983087;28;20038;-67
2021/12/26 06:38:54;;;;;;;24.05;8.98;;;;;;;;;;4987641;28;20048;-68
2021/12/26 06:41:41;;;;;;;20.00;9.25;;;;;;;;;;4981332;28;20041;-68
2021/12/26 06:44:26;;;;;;;29.10;9.85;;;;;;;;;;4993938;28;20577;-68
2021/12/26 06:46:57;;;;;;;27.58;9.73;;;;;;;;;;4971785;28;20030;-68
2021/12/26 06:49:43;;;;;;;22.00;9.13;;;;;;;;;;4980944;28;20137;-68
2021/12/26 06:52:09;;;;;;;22.95;8.68;;;;;;;;;;4970682;28;20038;-68
2021/12/26 06:54:36;;;;;;;23.20;8.65;;;;;;;;;;4988935;28;20095;-68
2021/12/26 06:57:02;;;;;;;24.00;9.00;;;;;;;;;;4990026;28;20047;-68
2021/12/26 06:59:28;;;;;;;22.90;8.85;;;;;;;;;;4987888;28;20076;-68
2021/12/26 07:01:54;;;;;;;21.90;7.55;;;;;;;;;;4983039;28;20028;-68
2021/12/26 07:04:24;;;;;;;25.38;8.77;;;;;;;;;;4981035;28;20469;-68
2021/12/26 07:06:50;;;;;;;26.70;8.63;;;;;;;;;;4995019;28;20030;-67
2021/12/26 07:09:24;;;;;;;20.10;7.93;;;;;;;;;;4982633;28;20698;-67
2021/12/26 07:11:50;;;;;;;20.25;6.88;;;;;;;;;;4981888;28;20046;-66
2021/12/26 07:14:28;;;;;;;21.75;7.93;;;;;;;;;;4981745;28;20054;-67
2021/12/26 07:16:55;;;;;;;22.95;8.40;;;;;;;;;;4985438;28;20045;-64
2021/12/26 07:19:21;;;;;;;22.73;8.45;;;;;;;;;;4979701;28;20122;-66
2021/12/26 07:21:48;;;;;;;19.98;7.20;;;;;;;;;;4979590;28;20030;-65
2021/12/26 07:24:15;;;;;;;23.25;9.38;;;;;;;;;;4973472;28;20023;-64
2021/12/26 07:26:41;;;;;;;20.88;8.88;;;;;;;;;;4984760;28;20039;-66
2021/12/26 07:29:26;;;;;;;20.35;8.73;;;;;;;;;;4978357;28;20035;-67
2021/12/26 07:31:52;;;;;;;25.20;10.40;;;;;;;;;;4981556;28;20034;-66
2021/12/26 07:34:19;;;;;;;50.33;16.38;;;-10.40;99.90;;;;;;4977575;28;20031;-65
2021/12/26 07:36:45;;;;;;;47.08;16.00;;;;;;;;;;4989889;28;20037;-70
2021/12/26 07:39:21;;;;;;;37.17;13.90;;;-10.20;99.90;;;;;;4979625;28;20034;-73
2021/12/26 07:41:47;;;;;;;27.67;12.02;;;;;;;;;;4979178;28;20045;-64
2021/12/26 07:44:32;;;;;;;23.25;10.18;;;;;;;;;;4981565;28;20037;-64
2021/12/26 07:47:17;;;;;;;22.20;9.35;;;;;;;;;;4980008;28;20084;-66
2021/12/26 07:49:44;;;;;;;25.77;9.77;;;;;;;;;;4978852;28;20489;-64
2021/12/26 07:52:33;;;;;;;36.90;12.10;;;;;;;;;;4976931;28;20511;-66
2021/12/26 07:55:27;;;;;;;18.65;9.38;;;-10.00;99.90;;;;;;4939397;28;20560;-64
2021/12/26 07:58:13;;;;;;;17.67;8.48;;;;;;;;;;4989500;28;20076;-64
2021/12/26 08:00:58;;;;;;;20.77;9.07;;;;;;;;;;4984015;28;20577;-64
2021/12/26 08:03:44;;;;;;;23.85;9.02;;;;;;;;;;4975099;28;20057;-64
2021/12/26 08:06:36;;;;;;;25.52;9.35;;;;;;;;;;4981805;28;20514;-64
2021/12/26 08:09:02;;;;;;;23.45;9.45;;;;;;;;;;4982574;28;20031;-64
2021/12/26 08:11:29;;;;;;;21.20;8.88;;;;;;;;;;4998328;28;20380;-64
2021/12/26 08:13:55;;;;;;;16.88;7.90;;;;;;;;;;4983966;28;20034;-64
2021/12/26 08:16:21;;;;;;;20.85;7.35;;;;;;;;;;4986255;28;20251;-64
2021/12/26 08:18:47;;;;;;;14.88;7.57;;;;;;;;;;4980569;28;20049;-64
2021/12/26 08:21:13;;;;;;;19.65;7.32;;;;;;;;;;4986194;28;20096;-64
2021/12/26 08:23:38;;;;;;;19.52;7.50;;;-8.00;99.90;;;;;;4983248;28;20030;-65
2021/12/26 08:26:04;;;;;;;18.38;7.22;;;;;;;;;;4978724;28;20402;-64
2021/12/26 08:28:30;;;;;;;19.23;7.45;;;;;;;;;;4981231;28;20113;-64
2021/12/26 08:30:56;;;;;;;17.58;7.60;;;;;;;;;;4985993;28;20045;-67
2021/12/26 08:33:22;;;;;;;19.33;8.13;;;;;;;;;;4980624;28;20034;-64
2021/12/26 08:35:49;;;;;;;18.02;7.25;;;-7.90;99.90;;;;;;4978432;28;20034;-64
2021/12/26 08:38:15;;;;;;;22.38;7.97;;;;;;;;;;4980525;28;20057;-64
2021/12/26 08:40:41;;;;;;;19.48;7.97;;;;;;;;;;4980977;28;20377;-69
2021/12/26 08:43:07;;;;;;;20.20;8.52;;;;;;;;;;4982426;28;20483;-69
2021/12/26 08:45:32;;;;;;;17.58;7.63;;;-7.40;99.90;;;;;;4984665;28;20877;-68
2021/12/26 08:47:58;;;;;;;21.80;8.25;;;-7.70;99.90;;;;;;4988569;28;20135;-69
2021/12/26 08:50:25;;;;;;;20.90;8.27;;;;;;;;;;4988002;28;21059;-69
2021/12/26 08:52:51;;;;;;;20.58;8.13;;;-7.60;99.90;;;;;;4987531;28;20033;-69
2021/12/26 08:55:17;;;;;;;18.90;9.02;;;-7.20;99.90;;;;;;4987388;28;20046;-68
2021/12/26 08:57:43;;;;;;;21.08;8.57;;;;;;;;;;4982235;28;20034;-68
2021/12/26 09:00:09;;;;;;;20.27;8.38;;;;;;;;;;4983590;28;20034;-68
2021/12/26 09:02:35;;;;;;;18.85;8.63;;;;;;;;;;4978245;28;20042;-68
2021/12/26 09:05:00;;;;;;;18.98;7.55;;;-6.80;99.90;;;;;;4986644;28;20221;-68
2021/12/26 09:07:25;;;;;;;22.83;9.38;;;-6.70;99.90;;;;;;4986514;28;20034;-68
2021/12/26 09:09:51;;;;;;;19.77;8.35;;;-6.60;99.90;;;;;;4984479;28;20031;-68
2021/12/26 09:12:16;;;;;;;22.05;8.57;;;-5.50;99.90;;;;;;4983254;28;20482;-68
2021/12/26 09:14:42;;;;;;;23.13;8.45;;;-6.50;99.90;;;;;;4992115;28;20770;-68
2021/12/26 09:17:07;;;;;;;26.02;9.70;;;-6.30;99.90;;;;;;4986241;28;20068;-68
2021/12/26 09:19:34;;;;;;;30.15;9.88;;;;;;;;;;4984192;28;20042;-69
2021/12/26 09:21:59;;;;;;;47.20;17.33;;;-5.90;99.90;;;;;;4985355;28;20118;-68
2021/12/26 09:24:25;;;;;;;24.88;8.60;;;;;;;;;;4984907;28;20113;-68
2021/12/26 09:26:51;;;;;;;19.92;8.05;;;;;;;;;;4993333;28;20053;-68
2021/12/26 09:29:17;;;;;;;23.20;8.07;;;;;;;;;;4988990;28;20037;-66
2021/12/26 09:31:43;;;;;;;21.13;8.20;;;;;;;;;;4991590;28;20046;-66
2021/12/26 09:34:09;;;;;;;13.95;7.20;;;;;;;;;;4988919;28;20406;-66
2021/12/26 09:36:35;;;;;;;15.68;7.20;;;;;;;;;;4979653;28;20144;-68
2021/12/26 09:39:01;;;;;;;17.92;8.43;;;;;;;;;;4980404;28;20050;-68
2021/12/26 09:41:27;;;;;;;23.17;8.18;;;;;;;;;;4983283;28;20037;-68
2021/12/26 09:43:53;;;;;;;23.85;8.57;;;;;;;;;;4981849;28;20037;-68
2021/12/26 09:46:19;;;;;;;21.48;8.05;;;-5.50;99.90;;;;;;4985386;28;20751;-68
2021/12/26 09:48:45;;;;;;;20.10;8.40;;;;;;;;;;4985227;28;20030;-68
2021/12/26 09:51:12;;;;;;;16.40;7.53;;;;;;;;;;4982354;28;20038;-69
2021/12/26 09:53:38;;;;;;;19.25;7.65;;;;;;;;;;4986047;28;20030;-68
2021/12/26 09:56:04;;;;;;;19.30;8.23;;;-5.30;99.90;;;;;;4979405;28;20033;-68
2021/12/26 09:58:30;;;;;;;21.83;7.93;;;-5.40;99.90;;;;;;4964484;28;20066;-68
2021/12/26 10:00:55;;;;;;;18.05;7.70;;;-5.30;99.90;;;;;;4983552;28;20513;-69
2021/12/26 10:03:22;;;;;;;15.60;6.90;;;;;;;;;;4984020;28;20038;-71
2021/12/26 10:05:47;;;;;;;19.38;8.27;;;-4.70;99.90;;;;;;4986245;28;20069;-72
2021/12/26 10:08:13;;;;;;;16.65;6.57;;;-4.80;99.90;;;;;;4986787;28;20117;-72
2021/12/26 10:10:39;;;;;;;15.90;6.78;;;;;;;;;;4987600;28;20160;-73
2021/12/26 10:13:04;;;;;;;14.05;6.25;;;-4.90;99.90;;;;;;4981558;28;20386;-72
2021/12/26 10:15:30;;;;;;;18.80;6.80;;;;;;;;;;4984026;28;20041;-72
2021/12/26 10:17:56;;;;;;;21.20;7.72;;;;;;;;;;4988311;28;20045;-71
2021/12/26 10:20:22;;;;;;;17.27;7.45;;;;;;;;;;4990430;28;20041;-73
2021/12/26 10:22:48;;;;;;;17.45;6.97;;;;;;;;;;4984554;28;20485;-65
2021/12/26 10:25:15;;;;;;;18.17;7.18;;;;;;;;;;4982354;28;20062;-66
2021/12/26 10:27:42;;;;;;;16.05;7.15;;;;;;;;;;4981750;28;20049;-66
2021/12/26 10:30:11;;;;;;;15.95;6.93;;;;;;;;;;4978390;28;20140;-66
2021/12/26 10:32:37;;;;;;;16.60;7.20;;;-4.40;99.90;;;;;;4985944;28;20061;-66
2021/12/26 10:35:02;;;;;;;18.77;6.93;;;-4.40;99.90;;;;;;4980408;28;20748;-66
2021/12/26 10:37:34;;;;;;;20.25;6.97;;;;;;;;;;4979276;28;20289;-66
2021/12/26 10:40:00;;;;;;;15.25;6.68;;;;;;;;;;4981547;28;20030;-66
2021/12/26 10:42:28;;;;;;;13.05;6.15;;;;;;;;;;4981489;28;20105;-66
2021/12/26 10:44:54;;;;;;;16.95;6.82;;;-4.00;99.90;;;;;;4983333;28;20038;-66
2021/12/26 10:47:19;;;;;;;18.95;6.80;;;-3.70;99.90;;;;;;4982469;28;20037;-70
2021/12/26 10:49:45;;;;;;;17.23;6.70;;;-3.80;99.90;;;;;;4982881;28;20041;-70
2021/12/26 10:52:11;;;;;;;14.77;6.20;;;;;;;;;;4986172;28;20077;-69
2021/12/26 10:54:41;;;;;;;17.20;6.05;;;-3.50;99.90;;;;;;4985472;28;20037;-69
2021/12/26 10:57:10;;;;;;;16.45;6.00;;;;;;;;;;4982831;28;20863;-69
2021/12/26 10:59:36;;;;;;;20.83;6.25;;;;;;;;;;4980802;28;20041;-69
2021/12/26 11:02:02;;;;;;;13.68;5.55;;;-3.60;99.90;;;;;;4985570;28;20041;-69
2021/12/26 11:04:27;;;;;;;16.08;6.03;;;-3.80;99.90;;;;;;4964313;28;20037;-70
2021/12/26 11:06:53;;;;;;;14.45;5.85;;;-3.40;99.90;;;;;;4985917;28;20572;-66
2021/12/26 11:09:18;;;;;;;13.98;5.68;;;-3.40;99.90;;;;;;4980222;28;20092;-66
2021/12/26 11:11:44;;;;;;;16.15;6.22;;;-3.30;99.90;;;;;;4987729;28;20066;-67
2021/12/26 11:14:09;;;;;;;12.35;5.25;;;-3.30;99.90;;;;;;4979489;28;20145;-67
2021/12/26 11:16:35;;;;;;;19.17;5.63;;;-2.90;99.90;;;;;;4980581;28;20037;-67
2021/12/26 11:19:00;;;;;;;16.10;5.78;;;-3.60;99.90;;;;;;4982635;28;20040;-67
2021/12/26 11:21:26;;;;;;;14.43;5.35;;;-3.50;99.90;;;;;;4980449;28;20391;-66
2021/12/26 11:23:51;;;;;;;14.40;5.55;;;-3.40;99.90;;;;;;4985096;28;20410;-67
2021/12/26 11:26:17;;;;;;;11.02;4.68;;;-2.90;99.90;;;;;;4989417;28;20034;-67
2021/12/26 11:28:42;;;;;;;12.70;6.22;;;-3.00;99.90;;;;;;4982334;28;20042;-67
2021/12/26 11:31:08;;;;;;;14.55;6.75;;;-2.00;99.90;;;;;;4986525;28;20062;-67
2021/12/26 11:33:33;;;;;;;13.98;5.25;;;-2.50;99.90;;;;;;4977522;28;20089;-67
2021/12/26 11:35:59;;;;;;;13.70;4.97;;;-2.30;99.90;;;;;;4978930;28;20066;-67
2021/12/26 11:38:24;;;;;;;11.63;5.38;;;-2.30;99.90;;;;;;4980923;28;20039;-67
2021/12/26 11:41:08;;;;;;;10.93;4.85;;;-2.20;99.90;;;;;;4986791;28;20081;-67
2021/12/26 11:43:53;;;;;;;14.18;5.70;;;-2.20;99.90;;;;;;4979594;28;20580;-67
2021/12/26 11:46:38;;;;;;;12.57;4.43;;;-2.50;99.90;;;;;;4991623;28;20048;-67
2021/12/26 11:49:24;;;;;;;10.88;4.85;;;-1.90;99.90;;;;;;4989136;28;20237;-67
2021/12/26 11:52:08;;;;;;;11.65;4.53;;;-2.20;99.90;;;;;;4989413;28;20788;-67
2021/12/26 11:54:41;;;;;;;12.32;5.20;;;-2.00;99.90;;;;;;4978293;28;20036;-67
2021/12/26 11:57:09;;;;;;;10.57;4.63;;;-1.80;99.90;;;;;;4977841;28;20470;-67
2021/12/26 11:59:34;;;;;;;11.25;5.15;;;-1.90;99.90;;;;;;4980239;28;20042;-67
2021/12/26 12:02:00;;;;;;;14.52;4.75;;;-1.10;99.90;;;;;;4980679;28;20046;-67
2021/12/26 12:04:25;;;;;;;12.00;4.30;;;-1.70;99.90;;;;;;4983393;28;20046;-67
2021/12/26 12:06:52;;;;;;;11.65;4.50;;;;;;;;;;4981848;28;20037;-67
2021/12/26 12:09:17;;;;;;;10.98;4.85;;;-1.10;99.90;;;;;;4991087;28;20140;-67
2021/12/26 12:11:43;;;;;;;11.85;5.25;;;-0.90;99.90;;;;;;4984885;28;20110;-67
2021/12/26 12:14:08;;;;;;;11.55;4.75;;;-0.70;99.90;;;;;;4978688;28;20482;-67
2021/12/26 12:16:34;;;;;;;9.73;4.57;;;-0.60;99.90;;;;;;4978017;28;20030;-67
2021/12/26 12:18:59;;;;;;;11.82;4.85;;;-0.70;99.80;;;;;;4977121;28;20667;-67
2021/12/26 12:21:25;;;;;;;9.07;4.88;;;-0.70;99.90;;;;;;4988538;28;20852;-67
2021/12/26 12:23:50;;;;;;;10.07;4.80;;;-1.10;99.90;;;;;;4987204;28;20037;-69
2021/12/26 12:26:16;;;;;;;14.63;6.07;;;-1.00;99.90;;;;;;4986616;28;20034;-69
2021/12/26 12:28:41;;;;;;;11.73;5.50;;;-1.40;99.90;;;;;;4985233;28;20129;-69
2021/12/26 12:31:07;;;;;;;10.95;5.15;;;-1.10;99.90;;;;;;4985551;28;20026;-69
2021/12/26 12:33:32;;;;;;;12.30;5.13;;;-1.70;99.90;;;;;;4985511;28;20518;-69
2021/12/26 12:35:58;;;;;;;9.23;4.47;;;;;;;;;;4984396;28;20877;-69
2021/12/26 12:38:24;;;;;;;10.90;4.82;;;-4.10;99.90;;;;;;4982879;28;20037;-67
2021/12/26 12:40:49;;;;;;;9.52;4.15;;;-1.10;99.90;;;;;;4984036;28;20034;-69
2021/12/26 12:43:15;;;;;;;10.88;4.72;;;-1.40;99.90;;;;;;4985480;28;20108;-70
2021/12/26 12:45:40;;;;;;;11.77;4.72;;;-1.40;99.90;;;;;;4972654;28;20034;-70
2021/12/26 12:48:06;;;;;;;8.95;4.03;;;-1.00;99.90;;;;;;4989742;28;20152;-69
2021/12/26 12:50:32;;;;;;;10.23;3.95;;;;;;;;;;4992515;28;20061;-70
2021/12/26 12:52:59;;;;;;;12.13;4.15;;;-1.10;99.90;;;;;;4982463;28;20049;-70
2021/12/26 12:55:25;;;;;;;13.20;4.68;;;;;;;;;;4986730;28;20489;-70
2021/12/26 12:57:52;;;;;;;8.80;3.97;;;;;;;;;;4987969;28;20444;-70
2021/12/26 13:00:17;;;;;;;9.40;3.75;;;-1.30;99.90;;;;;;4983131;28;20109;-69
2021/12/26 13:02:42;;;;;;;8.95;4.13;;;-1.20;99.40;;;;;;4989524;28;20030;-70
2021/12/26 13:05:08;;;;;;;8.57;3.83;;;;;;;;;;4981269;28;20035;-70
2021/12/26 13:07:34;;;;;;;11.45;4.40;;;-1.20;99.20;;;;;;4985517;28;20041;-70
2021/12/26 13:10:00;;;;;;;12.70;3.90;;;-0.70;99.90;;;;;;4988565;28;20482;-71
2021/12/26 13:12:25;;;;;;;8.25;4.32;;;-1.10;97.10;;;;;;4985452;28;20053;-69
2021/12/26 13:14:51;;;;;;;8.43;3.42;;;-1.00;98.60;;;;;;4984914;28;20046;-70
2021/12/26 13:17:16;;;;;;;11.65;3.92;;;-0.90;96.40;;;;;;4988133;28;20030;-70
2021/12/26 13:19:42;;;;;;;10.80;3.95;;;;;;;;;;4983672;28;20046;-70
2021/12/26 13:22:08;;;;;;;7.30;3.55;;;-0.10;98.80;;;;;;4984617;28;20772;-70
2021/12/26 13:24:33;;;;;;;9.00;3.78;;;-0.80;95.60;;;;;;4986938;28;20034;-69
2021/12/26 13:26:59;;;;;;;10.98;3.40;;;-1.10;96.70;;;;;;4988384;28;20049;-69
2021/12/26 13:29:24;;;;;;;9.75;3.80;;;-1.10;99.30;;;;;;4984426;28;20039;-69
2021/12/26 13:31:49;;;;;;;8.70;3.25;;;-1.30;95.70;;;;;;4978344;28;20046;-68
2021/12/26 13:34:15;;;;;;;10.77;3.58;;;-1.30;96.00;;;;;;4982896;28;20046;-69
2021/12/26 13:36:40;;;;;;;8.10;3.17;;;-1.30;95.70;;;;;;4983297;28;20048;-69
2021/12/26 13:39:06;;;;;;;8.00;3.95;;;;;;;;;;4983141;28;20395;-69
2021/12/26 13:41:32;;;;;;;10.10;3.50;;;;;;;;;;4986732;28;20022;-68
2021/12/26 13:43:58;;;;;;;7.75;3.83;;;;;;;;;;4988893;28;20038;-68
2021/12/26 13:46:24;;;;;;;9.75;3.75;;;;;;;;;;4980423;28;20022;-68
2021/12/26 13:48:50;;;;;;;7.55;2.97;;;;;;;;;;4984370;28;20988;-68
2021/12/26 13:51:16;;;;;;;15.27;3.65;;;;;;;;;;4984333;28;20137;-68
2021/12/26 13:53:42;;;;;;;12.43;3.30;;;-1.60;99.90;;;;;;4981650;28;20560;-68
2021/12/26 13:56:07;;;;;;;7.82;3.15;;;-1.70;98.70;;;;;;4983073;28;20041;-68
2021/12/26 13:58:33;;;;;;;11.57;3.70;;;;;;;;;;4983626;28;20041;-68
2021/12/26 14:00:59;;;;;;;7.68;3.20;;;-1.80;99.90;;;;;;4989640;28;20022;-68